createdAt,value
2018-03-26T00:00:22.555Z,74.80
2018-03-26T00:02:50.155Z,74.50
2018-03-26T00:05:17.743Z,74.50
2018-03-26T00:07:45.379Z,74.60
2018-03-26T00:10:12.931Z,74.80
2018-03-26T00:12:40.499Z,74.90
2018-03-26T00:15:08.656Z,75.20
2018-03-26T00:17:36.993Z,75.10
2018-03-26T00:20:04.566Z,75.10
2018-03-26T00:22:32.177Z,74.80
2018-03-26T00:24:59.839Z,74.50
2018-03-26T00:27:27.536Z,74.30
2018-03-26T00:29:55.986Z,73.80
2018-03-26T00:32:23.570Z,73.80
2018-03-26T00:34:51.974Z,73.50
2018-03-26T00:37:19.552Z,73.40
2018-03-26T00:39:47.120Z,73.60
2018-03-26T00:42:14.727Z,73.70
2018-03-26T00:44:42.326Z,74.10
2018-03-26T00:47:09.904Z,74.40
2018-03-26T00:49:38.207Z,74.40
2018-03-26T00:52:05.827Z,74.30
2018-03-26T00:54:33.406Z,74.20
2018-03-26T00:57:01.024Z,74.30
2018-03-26T00:59:28.599Z,74.40
2018-03-26T01:01:56.182Z,74.50
2018-03-26T01:04:24.052Z,74.40
2018-03-26T01:06:51.622Z,74.20
2018-03-26T01:09:19.214Z,73.90
2018-03-26T01:11:47.919Z,73.60
2018-03-26T01:14:16.269Z,73.40
2018-03-26T01:16:43.865Z,73.40
2018-03-26T01:19:11.899Z,73.40
2018-03-26T01:21:39.511Z,73.40
2018-03-26T01:24:07.106Z,73.40
2018-03-26T01:26:35.021Z,73.90
2018-03-26T01:29:02.597Z,74.10
2018-03-26T01:31:30.180Z,74.30
2018-03-26T01:33:57.775Z,74.60
2018-03-26T01:36:25.353Z,74.80
2018-03-26T01:38:52.932Z,75.00
2018-03-26T01:41:20.803Z,75.20
2018-03-26T01:43:48.371Z,75.00
2018-03-26T01:46:16.928Z,74.60
2018-03-26T01:48:44.542Z,74.50
2018-03-26T01:51:13.518Z,74.40
2018-03-26T01:53:41.847Z,73.30
2018-03-26T01:56:09.412Z,73.30
2018-03-26T01:58:37.002Z,72.50
2018-03-26T02:01:04.593Z,72.30
2018-03-26T02:03:32.946Z,72.40
2018-03-26T02:06:01.555Z,72.40
2018-03-26T02:08:29.904Z,73.10
2018-03-26T02:10:57.486Z,72.50
2018-03-26T02:13:25.072Z,72.50
2018-03-26T02:15:53.402Z,72.70
2018-03-26T02:18:20.996Z,72.60
2018-03-26T02:20:48.598Z,72.60
2018-03-26T02:23:16.221Z,72.40
2018-03-26T02:25:43.815Z,72.40
2018-03-26T02:28:11.406Z,72.70
2018-03-26T02:30:39.563Z,72.70
2018-03-26T02:33:07.135Z,72.80
2018-03-26T02:35:35.157Z,72.90
2018-03-26T02:38:02.828Z,72.90
2018-03-26T02:40:30.365Z,73.20
2018-03-26T02:42:58.195Z,73.10
2018-03-26T02:45:25.792Z,73.00
2018-03-26T02:47:53.380Z,72.80
2018-03-26T02:50:22.494Z,72.30
2018-03-26T02:52:50.937Z,72.30
2018-03-26T02:55:19.379Z,72.20
2018-03-26T02:57:47.868Z,71.90
2018-03-26T03:00:15.480Z,71.70
2018-03-26T03:02:43.091Z,71.30
2018-03-26T03:05:10.701Z,71.20
2018-03-26T03:07:38.267Z,70.80
2018-03-26T03:10:05.887Z,70.50
2018-03-26T03:12:33.498Z,70.40
2018-03-26T03:15:02.122Z,70.00
2018-03-26T03:17:30.492Z,70.40
2018-03-26T03:19:58.075Z,70.40
2018-03-26T03:22:25.663Z,71.10
2018-03-26T03:24:53.255Z,72.20
2018-03-26T03:27:21.327Z,74.00
2018-03-26T03:29:48.954Z,74.80
2018-03-26T03:32:16.580Z,75.20
2018-03-26T03:34:44.914Z,76.90
2018-03-26T03:37:12.660Z,76.90
2018-03-26T03:39:40.421Z,77.10
2018-03-26T03:42:08.047Z,77.50
2018-03-26T03:44:36.131Z,77.30
2018-03-26T03:47:04.495Z,77.40
2018-03-26T03:49:32.829Z,78.10
2018-03-26T03:52:00.962Z,78.00
2018-03-26T03:54:28.580Z,78.30
2018-03-26T03:56:56.250Z,78.20
2018-03-26T03:59:24.362Z,78.80
2018-03-26T04:01:51.971Z,77.90
2018-03-26T04:04:19.547Z,78.20
2018-03-26T04:06:47.249Z,78.40
2018-03-26T04:09:15.594Z,78.20
2018-03-26T04:11:43.196Z,78.20
2018-03-26T04:14:12.282Z,77.50
2018-03-26T04:16:39.928Z,77.50
2018-03-26T04:19:07.499Z,78.10
2018-03-26T04:21:35.162Z,77.50
2018-03-26T04:24:02.746Z,77.60
2018-03-26T04:26:30.334Z,77.60
2018-03-26T04:28:58.706Z,78.00
2018-03-26T04:31:26.294Z,78.00
2018-03-26T04:33:53.880Z,78.40
2018-03-26T04:36:22.123Z,78.70
2018-03-26T04:38:50.494Z,78.90
2018-03-26T04:41:18.105Z,78.80
2018-03-26T04:43:45.699Z,79.20
2018-03-26T04:46:13.315Z,79.60
2018-03-26T04:48:40.909Z,79.90
2018-03-26T04:51:08.544Z,80.20
2018-03-26T04:53:41.945Z,80.40
2018-03-26T04:56:09.563Z,80.20
2018-03-26T04:58:37.138Z,80.00
2018-03-26T05:01:04.948Z,80.50
2018-03-26T05:03:36.810Z,80.90
2018-03-26T05:06:04.426Z,81.50
2018-03-26T05:08:32.613Z,81.70
2018-03-26T05:11:00.996Z,80.90
2018-03-26T05:13:28.571Z,80.90
2018-03-26T05:15:56.176Z,80.50
2018-03-26T05:18:23.749Z,80.50
2018-03-26T05:20:51.316Z,80.80
2018-03-26T05:23:18.911Z,80.90
2018-03-26T05:25:46.542Z,81.30
2018-03-26T05:28:14.091Z,81.30
2018-03-26T05:30:42.027Z,82.10
2018-03-26T05:33:10.314Z,81.70
2018-03-26T05:35:37.893Z,81.40
2018-03-26T05:38:05.509Z,80.90
2018-03-26T05:40:33.128Z,81.20
2018-03-26T05:43:00.724Z,81.40
2018-03-26T05:48:05.066Z,81.80
2018-03-26T05:50:32.682Z,81.80
2018-03-26T05:53:00.284Z,81.80
2018-03-26T05:55:27.875Z,81.70
2018-03-26T05:57:56.257Z,81.60
2018-03-26T06:00:23.899Z,81.60
2018-03-26T06:02:51.607Z,81.40
2018-03-26T06:05:19.284Z,81.20
2018-03-26T06:07:47.037Z,81.30
2018-03-26T06:10:14.722Z,81.00
2018-03-26T06:12:42.480Z,81.20
2018-03-26T06:15:10.155Z,81.40
2018-03-26T06:17:37.812Z,81.60
2018-03-26T06:20:06.091Z,81.90
2018-03-26T06:22:33.758Z,82.10
2018-03-26T06:25:01.434Z,81.60
2018-03-26T06:27:30.149Z,81.40
2018-03-26T06:29:57.763Z,81.30
2018-03-26T06:32:25.387Z,81.20
2018-03-26T06:34:53.576Z,81.20
2018-03-26T06:37:28.724Z,81.60
2018-03-26T06:39:56.356Z,81.50
2018-03-26T06:42:23.940Z,82.20
2018-03-26T06:44:52.271Z,82.80
2018-03-26T06:47:19.916Z,82.80
2018-03-26T06:49:47.568Z,82.70
2018-03-26T06:52:15.962Z,81.50
2018-03-26T06:54:43.534Z,81.40
2018-03-26T06:57:11.178Z,79.60
2018-03-26T06:59:38.857Z,77.20
2018-03-26T07:02:06.474Z,76.60
2018-03-26T07:04:36.736Z,75.60
2018-03-26T07:07:04.322Z,75.10
2018-03-26T07:09:32.031Z,74.60
2018-03-26T07:11:59.634Z,75.00
2018-03-26T07:14:27.213Z,74.40
2018-03-26T07:16:55.112Z,74.10
2018-03-26T07:19:22.702Z,72.30
2018-03-26T07:21:50.744Z,72.20
2018-03-26T07:24:18.328Z,72.20
2018-03-26T07:26:46.871Z,72.40
2018-03-26T07:29:14.426Z,71.80
2018-03-26T07:31:42.141Z,72.20
2018-03-26T07:34:11.873Z,72.80
2018-03-26T07:36:42.608Z,72.60
2018-03-26T07:39:10.450Z,72.20
2018-03-26T07:41:38.162Z,71.80
2018-03-26T07:44:05.767Z,70.70
2018-03-26T07:46:34.960Z,69.40
2018-03-26T07:49:03.206Z,69.30
2018-03-26T07:51:31.339Z,67.10
2018-03-26T07:53:58.952Z,66.60
2018-03-26T07:56:26.784Z,66.90
2018-03-26T07:58:55.120Z,66.70
2018-03-26T08:01:22.718Z,66.70
2018-03-26T08:03:50.351Z,67.40
2018-03-26T08:06:17.920Z,66.50
2018-03-26T08:08:45.550Z,67.10
2018-03-26T08:11:13.451Z,67.80
2018-03-26T08:13:41.053Z,66.90
2018-03-26T08:16:08.687Z,68.00
2018-03-26T08:18:36.294Z,69.60
2018-03-26T08:21:03.995Z,70.00
2018-03-26T08:23:31.650Z,69.40
2018-03-26T08:25:59.246Z,69.80
2018-03-26T08:28:26.819Z,70.00
2018-03-26T08:30:55.157Z,70.50
2018-03-26T08:33:22.713Z,71.30
2018-03-26T08:35:50.299Z,72.30
2018-03-26T08:38:17.896Z,72.50
2018-03-26T08:40:46.592Z,73.50
2018-03-26T08:43:15.230Z,74.40
2018-03-26T08:45:43.104Z,74.40
2018-03-26T08:48:11.220Z,75.20
2018-03-26T08:50:39.878Z,74.30
2018-03-26T08:53:07.496Z,74.30
2018-03-26T08:55:35.893Z,74.90
2018-03-26T08:58:04.203Z,75.40
2018-03-26T09:00:33.057Z,76.60
2018-03-26T09:03:00.655Z,77.80
2018-03-26T09:05:28.278Z,78.60
2018-03-26T09:07:56.615Z,79.70
2018-03-26T09:10:24.920Z,80.00
2018-03-26T09:12:53.300Z,78.00
2018-03-26T09:15:20.898Z,78.00
2018-03-26T09:17:48.549Z,78.40
2018-03-26T09:20:16.159Z,78.40
2018-03-26T09:22:43.846Z,78.00
2018-03-26T09:25:12.998Z,76.00
2018-03-26T09:27:40.590Z,75.80
2018-03-26T09:30:08.156Z,71.80
2018-03-26T09:32:36.538Z,72.50
2018-03-26T09:35:04.132Z,73.00
2018-03-26T09:37:31.694Z,74.00
2018-03-26T09:40:00.097Z,74.40
2018-03-26T09:42:27.665Z,74.40
2018-03-26T09:44:55.272Z,75.10
2018-03-26T09:47:22.858Z,73.70
2018-03-26T09:49:50.487Z,73.70
2018-03-26T09:52:18.046Z,75.20
2018-03-26T09:54:45.640Z,76.10
2018-03-26T09:57:13.199Z,76.20
2018-03-26T09:59:41.575Z,72.20
2018-03-26T10:02:09.171Z,72.40
2018-03-26T10:04:38.030Z,73.20
2018-03-26T10:07:05.611Z,72.70
2018-03-26T10:09:34.091Z,74.20
2018-03-26T10:12:01.720Z,74.10
2018-03-26T10:14:29.322Z,74.50
2018-03-26T10:16:57.697Z,73.80
2018-03-26T10:19:26.091Z,74.20
2018-03-26T10:21:54.431Z,73.00
2018-03-26T10:24:22.019Z,73.00
2018-03-26T10:26:50.460Z,71.80
2018-03-26T10:29:20.782Z,71.50
2018-03-26T10:31:48.384Z,71.40
2018-03-26T10:34:16.734Z,71.10
2018-03-26T10:36:44.483Z,71.10
2018-03-26T10:39:12.061Z,72.60
2018-03-26T10:41:39.664Z,73.20
2018-03-26T10:44:07.257Z,73.60
2018-03-26T10:46:35.028Z,71.50
2018-03-26T10:49:02.636Z,68.50
2018-03-26T10:51:30.204Z,67.90
2018-03-26T10:53:58.963Z,67.70
2018-03-26T10:56:26.529Z,67.10
2018-03-26T10:58:54.107Z,66.30
2018-03-26T11:01:21.853Z,66.20
2018-03-26T11:03:49.616Z,64.50
2018-03-26T11:06:17.282Z,65.70
2018-03-26T11:08:44.892Z,65.90
2018-03-26T11:11:12.546Z,66.50
2018-03-26T11:13:40.794Z,64.60
2018-03-26T11:16:08.496Z,64.10
2018-03-26T11:18:36.138Z,63.80
2018-03-26T11:21:04.280Z,63.70
2018-03-26T11:23:31.882Z,63.00
2018-03-26T11:25:59.492Z,61.00
2018-03-26T11:28:27.643Z,59.90
2018-03-26T11:30:56.256Z,59.80
2018-03-26T11:33:23.825Z,59.80
2018-03-26T11:35:51.584Z,61.00
2018-03-26T11:38:19.156Z,59.20
2018-03-26T11:40:46.792Z,56.60
2018-03-26T11:43:15.904Z,56.10
2018-03-26T11:45:43.542Z,56.10
2018-03-26T11:48:11.898Z,55.10
2018-03-26T11:50:40.102Z,55.60
2018-03-26T11:53:07.691Z,55.70
2018-03-26T11:55:35.286Z,54.60
2018-03-26T11:58:03.623Z,55.20
2018-03-26T12:00:32.541Z,54.60
2018-03-26T12:03:00.150Z,54.60
2018-03-26T12:05:27.786Z,55.50
2018-03-26T12:07:55.939Z,55.30
2018-03-26T12:10:23.518Z,56.70
2018-03-26T12:12:51.120Z,55.90
2018-03-26T12:15:18.714Z,54.80
2018-03-26T12:17:46.670Z,54.60
2018-03-26T12:20:26.029Z,54.70
2018-03-26T12:22:54.711Z,51.80
2018-03-26T12:25:23.140Z,52.20
2018-03-26T12:28:02.294Z,52.20
2018-03-26T12:30:30.175Z,52.40
2018-03-26T12:32:58.010Z,52.50
2018-03-26T12:35:37.757Z,51.20
2018-03-26T12:38:05.427Z,51.90
2018-03-26T12:43:33.460Z,51.90
2018-03-26T12:46:12.972Z,52.80
2018-03-26T12:48:40.600Z,52.00
2018-03-26T12:51:19.998Z,50.20
2018-03-26T12:53:47.675Z,49.50
2018-03-26T12:56:15.295Z,49.40
2018-03-26T12:58:43.043Z,50.00
2018-03-26T13:01:22.502Z,49.10
2018-03-26T13:03:50.239Z,49.00
2018-03-26T13:06:18.014Z,48.60
2018-03-26T13:08:45.608Z,48.70
2018-03-26T13:11:13.495Z,49.30
2018-03-26T13:13:41.133Z,48.70
2018-03-26T13:16:08.748Z,48.60
2018-03-26T13:18:37.146Z,48.80
2018-03-26T13:21:06.555Z,47.20
2018-03-26T13:23:34.186Z,47.20
2018-03-26T13:26:03.376Z,46.80
2018-03-26T13:28:31.045Z,46.80
2018-03-26T13:30:59.360Z,45.80
2018-03-26T13:33:27.882Z,45.30
2018-03-26T13:35:55.487Z,45.30
2018-03-26T13:38:23.250Z,46.00
2018-03-26T13:40:51.737Z,45.80
2018-03-26T13:43:20.750Z,45.70
2018-03-26T13:45:49.104Z,45.90
2018-03-26T13:48:18.736Z,45.20
2018-03-26T13:50:46.347Z,45.10
2018-03-26T13:53:13.929Z,44.90
2018-03-26T13:55:41.545Z,46.10
2018-03-26T13:58:09.413Z,46.30
2018-03-26T14:00:37.056Z,46.50
2018-03-26T14:03:05.909Z,43.40
2018-03-26T14:05:33.533Z,43.50
2018-03-26T14:08:02.732Z,43.70
2018-03-26T14:10:42.155Z,43.70
2018-03-26T14:13:22.334Z,44.40
2018-03-26T14:16:01.826Z,43.80
2018-03-26T14:18:29.569Z,41.10
2018-03-26T14:20:58.212Z,39.40
2018-03-26T14:23:26.613Z,39.80
2018-03-26T14:25:54.787Z,39.70
2018-03-26T14:28:22.764Z,38.80
2018-03-26T14:30:50.438Z,39.20
2018-03-26T14:33:18.041Z,40.00
2018-03-26T14:35:45.663Z,39.80
2018-03-26T14:38:13.288Z,39.70
2018-03-26T14:40:41.669Z,38.20
2018-03-26T14:43:09.357Z,38.20
2018-03-26T14:45:36.935Z,38.80
2018-03-26T14:48:04.604Z,38.90
2018-03-26T14:50:32.205Z,39.10
2018-03-26T14:52:59.811Z,39.70
2018-03-26T14:55:27.499Z,39.20
2018-03-26T14:57:56.656Z,40.60
2018-03-26T15:00:25.056Z,41.40
2018-03-26T15:02:52.690Z,40.90
2018-03-26T15:05:21.829Z,39.80
2018-03-26T15:07:49.412Z,39.80
2018-03-26T15:10:17.819Z,38.60
2018-03-26T15:12:45.460Z,39.30
2018-03-26T15:15:13.281Z,39.00
2018-03-26T15:17:40.878Z,39.30
2018-03-26T15:20:08.664Z,39.70
2018-03-26T15:22:37.573Z,39.90
2018-03-26T15:25:05.190Z,40.30
2018-03-26T15:27:32.991Z,40.20
2018-03-26T15:30:00.611Z,41.40
2018-03-26T15:32:29.228Z,41.40
2018-03-26T15:34:56.851Z,41.40
2018-03-26T15:37:24.478Z,40.50
2018-03-26T15:39:53.435Z,40.90
2018-03-26T15:42:21.051Z,39.50
2018-03-26T15:44:50.801Z,41.50
2018-03-26T15:47:18.514Z,43.40
2018-03-26T15:49:46.890Z,44.10
2018-03-26T15:52:14.501Z,44.40
2018-03-26T15:54:43.057Z,45.20
2018-03-26T15:57:11.066Z,45.20
2018-03-26T15:59:39.425Z,44.70
2018-03-26T16:02:08.024Z,45.30
2018-03-26T16:04:35.718Z,45.30
2018-03-26T16:07:03.350Z,44.20
2018-03-26T16:09:32.513Z,45.50
2018-03-26T16:12:00.139Z,45.50
2018-03-26T16:14:27.724Z,45.70
2018-03-26T16:16:55.910Z,45.80
2018-03-26T16:19:23.490Z,45.90
2018-03-26T16:21:51.069Z,45.80
2018-03-26T16:24:18.692Z,45.40
2018-03-26T16:26:46.290Z,45.20
2018-03-26T16:29:14.118Z,43.80
2018-03-26T16:31:41.684Z,44.00
2018-03-26T16:34:09.278Z,43.90
2018-03-26T16:36:37.379Z,44.10
2018-03-26T16:39:05.759Z,43.70
2018-03-26T16:41:46.654Z,44.50
2018-03-26T16:44:15.088Z,45.40
2018-03-26T16:46:44.176Z,46.60
2018-03-26T16:49:11.872Z,46.50
2018-03-26T16:51:39.621Z,47.40
2018-03-26T16:54:07.230Z,48.00
2018-03-26T16:56:36.062Z,49.10
2018-03-26T16:59:03.724Z,49.10
2018-03-26T17:01:31.509Z,49.40
2018-03-26T17:03:59.205Z,49.80
2018-03-26T17:06:27.573Z,50.70
2018-03-26T17:08:55.357Z,50.40
2018-03-26T17:11:23.208Z,50.30
2018-03-26T17:13:51.559Z,48.40
2018-03-26T17:16:19.670Z,48.40
2018-03-26T17:18:48.048Z,49.30
2018-03-26T17:21:15.660Z,49.30
2018-03-26T17:23:43.260Z,48.60
2018-03-26T17:26:10.870Z,48.20
2018-03-26T17:28:39.197Z,48.90
2018-03-26T17:31:07.181Z,48.70
2018-03-26T17:33:34.750Z,49.10
2018-03-26T17:36:02.647Z,49.30
2018-03-26T17:38:30.274Z,50.00
2018-03-26T17:40:57.867Z,50.50
2018-03-26T17:43:26.237Z,51.10
2018-03-26T17:45:54.654Z,52.10
2018-03-26T17:48:23.415Z,52.20
2018-03-26T17:50:51.067Z,52.20
2018-03-26T17:53:18.630Z,52.40
2018-03-26T17:55:46.227Z,53.00
2018-03-26T17:58:13.826Z,53.30
2018-03-26T18:00:41.719Z,53.70
2018-03-26T18:03:09.338Z,53.90
2018-03-26T18:05:36.929Z,54.40
2018-03-26T18:08:04.586Z,55.00
2018-03-26T18:10:32.300Z,55.10
2018-03-26T18:13:01.195Z,56.00
2018-03-26T18:15:29.594Z,56.60
2018-03-26T18:17:57.191Z,56.50
2018-03-26T18:20:25.855Z,56.70
2018-03-26T18:22:53.525Z,56.90
2018-03-26T18:25:21.146Z,57.10
2018-03-26T18:27:49.567Z,57.90
2018-03-26T18:30:17.779Z,57.90
2018-03-26T18:32:45.413Z,58.30
2018-03-26T18:35:13.062Z,58.50
2018-03-26T18:37:40.721Z,58.10
2018-03-26T18:40:08.402Z,57.80
2018-03-26T18:42:36.021Z,57.80
2018-03-26T18:45:04.471Z,57.10
2018-03-26T18:47:32.358Z,57.10
2018-03-26T18:50:00.267Z,57.10
2018-03-26T18:52:29.150Z,57.00
2018-03-26T18:54:57.590Z,56.50
2018-03-26T18:57:26.050Z,56.50
2018-03-26T18:59:53.943Z,56.50
2018-03-26T19:02:21.562Z,56.40
2018-03-26T19:04:50.094Z,58.00
2018-03-26T19:07:18.724Z,58.00
2018-03-26T19:09:46.318Z,58.60
2018-03-26T19:12:13.914Z,59.00
2018-03-26T19:14:41.521Z,59.50
2018-03-26T19:17:09.904Z,60.10
2018-03-26T19:19:37.523Z,60.50
2018-03-26T19:22:05.159Z,60.40
2018-03-26T19:24:32.783Z,60.50
2018-03-26T19:27:01.217Z,60.30
2018-03-26T19:29:29.863Z,60.30
2018-03-26T19:31:59.517Z,59.20
2018-03-26T19:34:27.138Z,59.20
2018-03-26T19:36:55.627Z,58.80
2018-03-26T19:39:24.845Z,58.80
2018-03-26T19:41:52.533Z,59.10
2018-03-26T19:44:21.047Z,58.90
2018-03-26T19:46:54.871Z,58.40
2018-03-26T19:49:22.527Z,58.40
2018-03-26T19:51:50.523Z,57.90
2018-03-26T19:54:18.190Z,57.30
2018-03-26T19:56:46.951Z,56.50
2018-03-26T19:59:16.076Z,56.60
2018-03-26T20:01:44.576Z,56.60
2018-03-26T20:04:12.473Z,55.40
2018-03-26T20:06:40.696Z,54.90
2018-03-26T20:09:08.565Z,53.10
2018-03-26T20:11:36.251Z,51.70
2018-03-26T20:14:06.786Z,51.20
2018-03-26T20:16:34.487Z,51.30
2018-03-26T20:19:02.134Z,51.50
2018-03-26T20:21:29.858Z,52.00
2018-03-26T20:23:58.672Z,51.50
2018-03-26T20:26:27.679Z,52.70
2018-03-26T20:28:55.623Z,52.70
2018-03-26T20:31:24.495Z,55.90
2018-03-26T20:33:53.210Z,56.90
2018-03-26T20:36:21.154Z,56.90
2018-03-26T20:38:48.883Z,57.90
2018-03-26T20:41:17.231Z,59.00
2018-03-26T20:43:46.268Z,59.80
2018-03-26T20:46:13.945Z,59.80
2018-03-26T20:48:41.572Z,60.40
2018-03-26T20:51:09.423Z,61.00
2018-03-26T20:53:37.852Z,61.20
2018-03-26T20:56:05.518Z,61.20
2018-03-26T20:58:33.206Z,61.80
2018-03-26T21:01:01.614Z,63.10
2018-03-26T21:03:29.810Z,62.90
2018-03-26T21:06:00.551Z,64.70
2018-03-26T21:08:29.552Z,64.70
2018-03-26T21:10:57.959Z,65.30
2018-03-26T21:13:28.039Z,65.30
2018-03-26T21:15:56.420Z,66.20
2018-03-26T21:18:24.147Z,66.10
2018-03-26T21:20:51.804Z,66.70
2018-03-26T21:23:20.504Z,67.00
2018-03-26T21:25:48.198Z,67.40
2018-03-26T21:28:15.940Z,68.20
2018-03-26T21:30:43.607Z,67.70
2018-03-26T21:33:11.210Z,68.80
2018-03-26T21:35:39.753Z,68.80
2018-03-26T21:38:08.494Z,70.50
2018-03-26T21:40:38.139Z,70.90
2018-03-26T21:43:05.776Z,70.90
2018-03-26T21:45:33.407Z,71.80
2018-03-26T21:48:01.289Z,72.60
2018-03-26T21:50:28.903Z,73.10
2018-03-26T21:52:56.488Z,74.00
2018-03-26T21:55:25.555Z,74.30
2018-03-26T21:57:53.739Z,75.10
2018-03-26T22:00:22.334Z,74.60
2018-03-26T22:02:50.171Z,74.70
2018-03-26T22:05:18.088Z,73.90
2018-03-26T22:07:45.727Z,71.20
2018-03-26T22:10:13.960Z,67.80
2018-03-26T22:12:41.657Z,67.80
2018-03-26T22:15:09.343Z,69.00
2018-03-26T22:17:38.315Z,69.50
2018-03-26T22:20:06.972Z,69.90
2018-03-26T22:22:35.039Z,71.20
2018-03-26T22:25:03.102Z,71.70
2018-03-26T22:27:32.314Z,73.30
2018-03-26T22:30:00.643Z,73.50
2018-03-26T22:32:28.848Z,73.60
2018-03-26T22:34:57.973Z,73.70
2018-03-26T22:37:26.390Z,73.70
2018-03-26T22:39:54.842Z,74.50
2018-03-26T22:42:23.549Z,75.20
2018-03-26T22:44:52.003Z,76.10
2018-03-26T22:47:20.367Z,78.00
2018-03-26T22:49:47.946Z,78.00
2018-03-26T22:52:16.407Z,78.80
2018-03-26T22:54:44.131Z,78.80
2018-03-26T22:57:12.346Z,79.50
2018-03-26T22:59:40.084Z,80.20
2018-03-26T23:02:08.311Z,80.90
2018-03-26T23:04:36.368Z,81.50
2018-03-26T23:07:03.951Z,82.00
2018-03-26T23:09:32.415Z,83.00
2018-03-26T23:12:00.061Z,83.00
2018-03-26T23:14:28.320Z,83.80
2018-03-26T23:16:55.924Z,84.20
2018-03-26T23:19:23.865Z,84.60
2018-03-26T23:21:51.483Z,85.10
2018-03-26T23:24:19.074Z,85.50
2018-03-26T23:26:46.961Z,86.00
2018-03-26T23:29:14.523Z,86.30
2018-03-26T23:31:42.635Z,86.90
2018-03-26T23:34:10.199Z,87.30
2018-03-26T23:36:37.787Z,87.40
2018-03-26T23:39:06.042Z,87.90
2018-03-26T23:41:33.636Z,87.90
2018-03-26T23:44:01.212Z,88.80
2018-03-26T23:46:28.818Z,88.60
2018-03-26T23:48:56.892Z,89.20
2018-03-26T23:51:26.206Z,89.30
2018-03-26T23:53:54.279Z,89.30
2018-03-26T23:56:21.894Z,89.70
2018-03-26T23:58:49.450Z,89.70
